Time;durP1;ratioP1;P1;durP2;ratioP2;P2;SDS_P1;SDS_P2;PMS_P1;PMS_P2;Temp;Humidity;BMP_temperature;BMP_pressure;BME280_temperature;BME280_humidity;BME280_pressure;Samples;Min_cycle;Max_cycle;Signal;HPM_P1;HPM_P2
2023/01/03 00:01:47;;;;;;;19.50;17.58;;;;;;;;;;10017614;29;20522;-67
2023/01/03 00:06:44;;;;;;;18.25;16.63;;;;;;;;;;10025962;28;20051;-66
2023/01/03 00:16:57;;;;;;;15.88;14.63;;;;;;;;;;10022275;28;20043;-68
2023/01/03 00:21:53;;;;;;;18.67;16.95;;;;;;;;;;10025203;29;20059;-69
2023/01/03 00:26:49;;;;;;;19.88;17.90;;;;;;;;;;10009188;28;20143;-69
2023/01/03 00:31:46;;;;;;;23.55;18.67;;;;;;;;;;10018540;28;20188;-67
2023/01/03 00:36:42;;;;;;;21.17;19.05;;;;;;;;;;10028306;28;20051;-68
2023/01/03 00:41:38;;;;;;;21.42;19.77;;;;;;;;;;10023543;29;20067;-67
2023/01/03 00:46:35;;;;;;;22.35;20.08;;;;;;;;;;10015418;28;20051;-67
2023/01/03 00:51:32;;;;;;;20.23;18.65;;;;;;;;;;10020384;28;20553;-68
2023/01/03 00:56:30;;;;;;;17.23;15.82;;;;;;;;;;10016706;29;20058;-69
2023/01/03 01:01:28;;;;;;;20.42;18.58;;;;;;;;;;10024982;28;20048;-69
2023/01/03 01:06:26;;;;;;;19.08;17.27;;;;;;;;;;10016321;28;20056;-69
2023/01/03 01:11:24;;;;;;;21.10;16.95;;;;;;;;;;10022243;28;20063;-69
2023/01/03 01:16:24;;;;;;;16.70;14.90;;;;;;;;;;10008143;28;20412;-68
2023/01/03 01:21:22;;;;;;;17.85;16.27;;;;;;;;;;10009119;28;20056;-68
2023/01/03 01:26:23;;;;;;;16.67;15.45;;;;;;;;;;10026531;28;20685;-68
2023/01/03 01:31:21;;;;;;;19.88;18.08;;;;;;;;;;10018573;28;20052;-68
2023/01/03 01:36:19;;;;;;;20.75;18.90;;;;;;;;;;10013258;28;20821;-68
2023/01/03 01:46:31;;;;;;;23.38;21.10;;;;;;;;;;10012203;28;20147;-68
2023/01/03 01:51:29;;;;;;;23.17;21.15;;;;;;;;;;10022389;28;20506;-67
2023/01/03 01:56:28;;;;;;;25.33;23.27;;;;;;;;;;10018150;28;20106;-67
2023/01/03 02:01:24;;;;;;;25.45;22.90;;;;;;;;;;10009467;28;20054;-67
2023/01/03 02:06:21;;;;;;;25.58;23.55;;;;;;;;;;10014986;28;20059;-67
2023/01/03 02:11:27;;;;;;;27.48;25.13;;;;;;;;;;10017995;29;20104;-66
2023/01/03 02:16:47;;;;;;;26.65;24.95;;;;;;;;;;10028663;28;20532;-67
2023/01/03 02:21:52;;;;;;;28.80;26.73;;;;;;;;;;10026282;28;20127;-67
2023/01/03 02:27:03;;;;;;;28.90;26.65;;;;;;;;;;10021529;28;20075;-67
2023/01/03 02:32:06;;;;;;;27.83;25.85;;;;;;;;;;10012687;29;20050;-67
2023/01/03 02:37:03;;;;;;;29.42;26.60;;;;;;;;;;10014823;28;20044;-67
2023/01/03 02:47:18;;;;;;;28.40;26.20;;;;;;;;;;10016386;29;20078;-67
2023/01/03 02:52:20;;;;;;;27.85;25.40;;;;;;;;;;10029138;28;20054;-66
2023/01/03 02:57:19;;;;;;;26.80;24.63;;;;;;;;;;10022003;28;20074;-66
2023/01/03 03:02:16;;;;;;;26.58;24.67;;;;;;;;;;10010821;28;20422;-67
2023/01/03 03:07:23;;;;;;;29.08;26.80;;;;;;;;;;10026034;28;20043;-67
2023/01/03 03:17:39;;;;;;;28.55;26.27;;;;;;;;;;10018664;28;20128;-66
2023/01/03 03:33:18;;;;;;;26.63;24.38;;;;;;;;;;10023737;28;20142;-68
2023/01/03 03:38:17;;;;;;;27.65;25.45;;;;;;;;;;10020718;28;20074;-68
2023/01/03 03:54:06;;;;;;;27.40;25.27;;;;;;;;;;10029175;28;20051;-67
2023/01/03 03:59:05;;;;;;;25.73;23.95;;;;;;;;;;10023785;28;20126;-67
2023/01/03 04:04:03;;;;;;;27.10;25.13;;;;;;;;;;10016400;28;20059;-68
2023/01/03 04:08:59;;;;;;;26.67;24.45;;;;;;;;;;10006678;28;20044;-68
2023/01/03 04:13:56;;;;;;;27.23;25.23;;;;;;;;;;10023504;28;20047;-67
2023/01/03 04:18:52;;;;;;;26.38;24.50;;;;;;;;;;10017652;28;20047;-67
2023/01/03 04:23:48;;;;;;;28.52;26.33;;;;;;;;;;10027778;28;20143;-67
2023/01/03 04:28:44;;;;;;;30.27;28.13;;;;;;;;;;10012470;28;20051;-67
2023/01/03 04:33:41;;;;;;;31.65;28.60;;;;;;;;;;10013314;28;20155;-67
2023/01/03 04:38:37;;;;;;;32.47;29.38;;;;;;;;;;10022123;28;20043;-68
2023/01/03 04:48:48;;;;;;;32.38;30.08;;;;;;;;;;9995533;28;20120;-68
2023/01/03 04:53:45;;;;;;;32.88;30.73;;;;;;;;;;10017235;28;20048;-68
2023/01/03 04:58:41;;;;;;;34.95;32.65;;;;;;;;;;10006598;28;20043;-68
2023/01/03 05:03:37;;;;;;;37.63;34.58;;;;;;;;;;10017676;28;20055;-67
2023/01/03 05:08:34;;;;;;;35.40;32.67;;;;;;;;;;10019304;28;20174;-68
2023/01/03 05:13:31;;;;;;;37.03;33.92;;;;;;;;;;10019057;29;20056;-68
2023/01/03 05:18:29;;;;;;;34.88;32.58;;;;;;;;;;10017802;28;20135;-69
2023/01/03 05:28:42;;;;;;;35.08;32.42;;;;;;;;;;10021404;28;20148;-68
2023/01/03 05:33:38;;;;;;;33.63;30.67;;;;;;;;;;10014416;29;20224;-68
2023/01/03 05:38:35;;;;;;;32.83;30.40;;;;;;;;;;10022852;28;20511;-68
2023/01/03 05:43:31;;;;;;;30.45;28.10;;;;;;;;;;10016531;28;20040;-68
2023/01/03 05:48:28;;;;;;;34.83;32.08;;;;;;;;;;10009348;28;20075;-68
2023/01/03 05:53:24;;;;;;;33.40;30.83;;;;;;;;;;10018789;28;20044;-68
2023/01/03 05:58:20;;;;;;;35.45;33.15;;;;;;;;;;10030425;28;20541;-69
2023/01/03 06:03:17;;;;;;;35.58;32.70;;;;;;;;;;10018097;28;20068;-68
2023/01/03 06:08:13;;;;;;;37.33;34.60;;;;;;;;;;10025018;28;20044;-68
2023/01/03 06:13:09;;;;;;;37.97;35.08;;;;;;;;;;10026201;29;20147;-69
2023/01/03 06:18:05;;;;;;;41.05;37.88;;;;;;;;;;10029600;28;20055;-69
2023/01/03 06:23:02;;;;;;;42.00;39.10;;;;;;;;;;10029780;29;20490;-69
2023/01/03 06:27:58;;;;;;;43.67;40.22;;;;;;;;;;10021075;29;20062;-69
2023/01/03 06:32:54;;;;;;;40.60;37.53;;;;;;;;;;10028181;28;20055;-67
2023/01/03 06:37:51;;;;;;;40.85;37.75;;;;;;;;;;10016322;28;20493;-69
2023/01/03 06:42:47;;;;;;;42.20;38.95;;;;;;;;;;10025655;28;20510;-68
2023/01/03 06:53:13;;;;;;;42.63;39.72;;;;;;;;;;10015133;28;20182;-69
2023/01/03 06:58:10;;;;;;;44.15;40.92;;;;;;;;;;10016532;28;20051;-68
2023/01/03 07:03:06;;;;;;;39.15;36.40;;;;;;;;;;10022034;28;20043;-68
2023/01/03 07:08:07;;;;;;;35.30;32.85;;;;;;;;;;10014105;28;20467;-68
2023/01/03 07:18:18;;;;;;;30.10;27.17;;;;;;;;;;10024710;28;20051;-69
2023/01/03 07:23:14;;;;;;;27.27;24.92;;;;;;;;;;10029774;28;20146;-69
2023/01/03 07:28:11;;;;;;;24.25;22.15;;;;;;;;;;10021688;28;20055;-68
2023/01/03 07:33:08;;;;;;;21.35;19.63;;;;;;;;;;10016648;28;20209;-69
2023/01/03 07:38:05;;;;;;;18.77;17.23;;;;;;;;;;10027343;29;20102;-69
2023/01/03 07:48:16;;;;;;;18.92;16.88;;;;;;;;;;10014760;28;20054;-69
2023/01/03 07:53:15;;;;;;;17.50;16.00;;;;;;;;;;10020596;28;20143;-69
2023/01/03 07:58:12;;;;;;;17.88;15.25;;;;;;;;;;10014578;28;20039;-68
2023/01/03 08:03:08;;;;;;;18.38;16.55;;;;;;;;;;10023410;29;20043;-69
2023/01/03 08:08:07;;;;;;;21.40;18.10;;;;;;;;;;10019832;29;20056;-69
2023/01/03 08:13:16;;;;;;;19.95;16.42;;;;;;;;;;10016319;29;20058;-68
2023/01/03 08:18:13;;;;;;;18.52;16.85;;;;;;;;;;10015894;28;20071;-68
2023/01/03 08:23:09;;;;;;;19.88;17.85;;;;;;;;;;10030082;28;20044;-69
2023/01/03 08:28:07;;;;;;;21.27;19.23;;;;;;;;;;10022023;28;20127;-69
2023/01/03 08:33:03;;;;;;;21.42;19.73;;;;;;;;;;10015549;28;20051;-69
2023/01/03 08:38:01;;;;;;;23.08;20.98;;;;;;;;;;10022207;29;20054;-69
2023/01/03 08:42:57;;;;;;;24.00;22.08;;;;;;;;;;10017802;28;20047;-69
2023/01/03 08:47:56;;;;;;;25.17;22.63;;;;;;;;;;10019958;28;20518;-68
2023/01/03 08:52:52;;;;;;;27.10;24.55;;;;;;;;;;10020026;28;20488;-69
2023/01/03 08:57:48;;;;;;;24.42;21.95;;;;;;;;;;10019306;29;20044;-69
2023/01/03 09:02:45;;;;;;;24.73;22.48;;;;;;;;;;10023197;28;20043;-69
2023/01/03 09:07:41;;;;;;;25.13;22.13;;;;;;;;;;10019375;29;20058;-68
2023/01/03 09:12:38;;;;;;;25.13;22.55;;;;;;;;;;10011103;29;20498;-68
2023/01/03 09:17:34;;;;;;;22.83;20.70;;;;;;;;;;10016799;29;20048;-69
2023/01/03 09:22:30;;;;;;;22.95;20.83;;;;;;;;;;10022197;28;20607;-68
2023/01/03 09:27:27;;;;;;;23.75;21.75;;;;;;;;;;10015466;28;20052;-68
2023/01/03 09:32:23;;;;;;;24.10;21.80;;;;;;;;;;10011528;29;20057;-68
2023/01/03 09:37:19;;;;;;;23.75;21.50;;;;;;;;;;10016604;28;20047;-68
2023/01/03 09:47:38;;;;;;;21.88;19.75;;;;;;;;;;10016320;28;20086;-69
2023/01/03 10:08:55;;;;;;;19.20;16.83;;;;;;;;;;10019815;28;20522;-68
2023/01/03 10:13:57;;;;;;;20.67;18.60;;;;;;;;;;10014785;28;20040;-69
2023/01/03 10:19:16;;;;;;;18.70;16.57;;;;;;;;;;10020857;28;20071;-68
2023/01/03 10:24:23;;;;;;;18.23;15.05;;;;;;;;;;10010475;29;20048;-68
2023/01/03 10:29:20;;;;;;;19.98;14.23;;;;;;;;;;10022851;28;20064;-68
2023/01/03 10:34:16;;;;;;;16.00;14.38;;;;;;;;;;10027647;29;20043;-69
2023/01/03 10:39:12;;;;;;;17.55;13.45;;;;;;;;;;10030492;28;20048;-68
2023/01/03 10:44:20;;;;;;;19.77;14.52;;;;;;;;;;10025905;28;20719;-69
2023/01/03 10:49:17;;;;;;;15.80;13.90;;;;;;;;;;10025161;29;20052;-69
2023/01/03 10:54:29;;;;;;;19.88;13.40;;;;;;;;;;10024500;28;20666;-68
2023/01/03 10:59:27;;;;;;;16.48;13.35;;;;;;;;;;10030353;28;20150;-68
2023/01/03 11:04:24;;;;;;;14.45;12.88;;;;;;;;;;10027316;29;20131;-68
2023/01/03 11:09:20;;;;;;;12.23;10.93;;;;;;;;;;10026719;28;20047;-69
2023/01/03 11:14:16;;;;;;;13.82;11.57;;;;;;;;;;10028522;28;20050;-68
2023/01/03 11:19:15;;;;;;;11.40;10.27;;;;;;;;;;10023165;28;20040;-69
2023/01/03 11:24:22;;;;;;;13.65;10.77;;;;;;;;;;10035369;28;20421;-69
2023/01/03 11:29:37;;;;;;;18.02;9.95;;;;;;;;;;10028667;28;20071;-68
2023/01/03 11:34:45;;;;;;;12.43;10.38;;;;;;;;;;10018667;29;20054;-69
2023/01/03 11:40:15;;;;;;;10.10;9.07;;;;;;;;;;10020927;29;20269;-69
2023/01/03 11:45:17;;;;;;;12.40;9.57;;;;;;;;;;10011103;29;20052;-69
2023/01/03 11:50:18;;;;;;;12.02;8.80;;;;;;;;;;10025042;28;20047;-69
2023/01/03 11:55:24;;;;;;;10.68;9.27;;;;;;;;;;10024251;29;20047;-69
2023/01/03 12:00:26;;;;;;;11.68;8.13;;;;;;;;;;10016586;29;20524;-69
2023/01/03 12:05:41;;;;;;;9.05;7.32;;;;;;;;;;10032991;28;20138;-69
2023/01/03 12:10:57;;;;;;;11.23;7.88;;;;;;;;;;10023176;29;20123;-69
2023/01/03 12:15:57;;;;;;;10.25;8.25;;;;;;;;;;10021695;29;20126;-69
2023/01/03 12:20:56;;;;;;;11.48;8.13;;;;;;;;;;10020649;28;20043;-69
2023/01/03 12:25:55;;;;;;;10.52;7.93;;;;;;;;;;10023240;28;20066;-69
2023/01/03 12:30:55;;;;;;;8.75;7.78;;;;;;;;;;10015686;28;20078;-69
2023/01/03 12:35:56;;;;;;;13.18;8.30;;;;;;;;;;10010411;29;20052;-68
2023/01/03 12:40:55;;;;;;;10.13;8.10;;;;;;;;;;10018010;28;20082;-67
2023/01/03 12:46:12;;;;;;;8.73;7.93;;;;;;;;;;10023291;28;20059;-66
2023/01/03 12:51:10;;;;;;;8.90;8.00;;;;;;;;;;10011730;28;21519;-68
2023/01/03 12:56:09;;;;;;;8.45;7.45;;;;;;;;;;10022324;28;20142;-67
2023/01/03 13:01:14;;;;;;;9.90;8.35;;;;;;;;;;10019240;28;20048;-67
2023/01/03 13:06:15;;;;;;;9.60;8.70;;;;;;;;;;10017387;28;20082;-68
2023/01/03 13:11:18;;;;;;;8.40;7.63;;;;;;;;;;9998307;29;20135;-67
2023/01/03 13:16:36;;;;;;;9.65;7.80;;;;;;;;;;10021891;28;20075;-68
2023/01/03 13:21:50;;;;;;;9.43;8.05;;;;;;;;;;10029513;28;20510;-68
2023/01/03 13:27:04;;;;;;;9.80;8.80;;;;;;;;;;10026845;28;20139;-69
2023/01/03 13:32:02;;;;;;;9.10;7.80;;;;;;;;;;10018136;28;20044;-70
2023/01/03 13:37:09;;;;;;;8.95;8.00;;;;;;;;;;10014567;28;20044;-69
2023/01/03 13:42:17;;;;;;;11.30;7.80;;;;;;;;;;10012129;29;20480;-68
2023/01/03 13:47:32;;;;;;;8.70;7.35;;;;;;;;;;10015989;28;20067;-68
2023/01/03 13:52:35;;;;;;;11.80;8.73;;;;;;;;;;10019219;28;20103;-68
2023/01/03 13:57:36;;;;;;;14.68;9.45;;;;;;;;;;10016847;28;20059;-67
2023/01/03 14:02:46;;;;;;;13.13;9.55;;;;;;;;;;10013216;28;20048;-68
2023/01/03 14:07:55;;;;;;;13.13;9.95;;;;;;;;;;10024149;29;20058;-68
2023/01/03 14:12:51;;;;;;;11.30;9.30;;;;;;;;;;10025358;28;20079;-68
2023/01/03 14:17:51;;;;;;;12.68;9.20;;;;;;;;;;10036370;28;20676;-69
2023/01/03 14:22:49;;;;;;;11.65;9.43;;;;;;;;;;10024295;28;20078;-68
2023/01/03 14:27:45;;;;;;;12.25;9.15;;;;;;;;;;10026017;28;20055;-68
2023/01/03 14:32:41;;;;;;;12.18;8.80;;;;;;;;;;10030889;28;20526;-69
2023/01/03 14:37:44;;;;;;;12.82;10.15;;;;;;;;;;10015803;29;20066;-68
2023/01/03 14:42:44;;;;;;;12.02;9.95;;;;;;;;;;10022461;28;20056;-68
2023/01/03 14:47:41;;;;;;;10.60;9.50;;;;;;;;;;10020862;28;20139;-68
2023/01/03 14:52:39;;;;;;;13.75;9.88;;;;;;;;;;10031671;28;20139;-68
2023/01/03 14:57:37;;;;;;;12.68;10.27;;;;;;;;;;10028551;28;20135;-68
2023/01/03 15:02:37;;;;;;;13.82;10.55;;;;;;;;;;10025316;28;20047;-69
2023/01/03 15:07:37;;;;;;;11.40;9.98;;;;;;;;;;10013702;28;20123;-68
2023/01/03 15:12:35;;;;;;;12.25;10.15;;;;;;;;;;10014729;28;20075;-67
2023/01/03 15:17:31;;;;;;;12.57;10.85;;;;;;;;;;10023157;28;20058;-68
2023/01/03 15:22:40;;;;;;;11.93;9.77;;;;;;;;;;10013036;28;20052;-68
2023/01/03 15:27:36;;;;;;;11.20;10.02;;;;;;;;;;10032831;29;20079;-68
2023/01/03 15:32:43;;;;;;;13.85;11.38;;;;;;;;;;10019598;29;20074;-68
2023/01/03 15:37:39;;;;;;;11.48;10.35;;;;;;;;;;10017902;28;20123;-68
2023/01/03 15:47:56;;;;;;;14.07;12.20;;;;;;;;;;10025947;28;20142;-68
2023/01/03 15:52:52;;;;;;;14.65;13.13;;;;;;;;;;10029488;28;20138;-68
2023/01/03 15:57:50;;;;;;;15.65;13.75;;;;;;;;;;10021299;29;20052;-68
2023/01/03 16:02:47;;;;;;;16.90;15.18;;;;;;;;;;10025635;28;20439;-68
2023/01/03 16:07:43;;;;;;;18.48;16.77;;;;;;;;;;10025351;28;20060;-68
2023/01/03 16:12:41;;;;;;;19.67;17.27;;;;;;;;;;10026360;28;20074;-67
2023/01/03 16:17:37;;;;;;;20.42;18.42;;;;;;;;;;10025988;28;20054;-67
2023/01/03 16:22:33;;;;;;;22.40;20.35;;;;;;;;;;10020374;28;20062;-68
2023/01/03 16:27:32;;;;;;;24.23;21.70;;;;;;;;;;10021243;29;20047;-68
2023/01/03 16:32:28;;;;;;;24.38;22.13;;;;;;;;;;10023502;28;20050;-67
2023/01/03 16:37:25;;;;;;;23.00;20.85;;;;;;;;;;10019326;28;20060;-67
2023/01/03 16:42:26;;;;;;;25.35;22.98;;;;;;;;;;10019942;28;20051;-68
2023/01/03 16:47:24;;;;;;;24.67;22.17;;;;;;;;;;10023702;28;20063;-68
2023/01/03 16:52:22;;;;;;;24.10;21.70;;;;;;;;;;10017611;28;20063;-68
2023/01/03 16:57:20;;;;;;;25.73;23.33;;;;;;;;;;10013790;29;20131;-68
2023/01/03 17:02:16;;;;;;;25.30;22.70;;;;;;;;;;10016326;29;20040;-68
2023/01/03 17:07:17;;;;;;;26.40;22.73;;;;;;;;;;10023935;29;20047;-68
2023/01/03 17:12:16;;;;;;;27.33;24.63;;;;;;;;;;10016744;28;20089;-68
2023/01/03 17:17:15;;;;;;;27.67;23.90;;;;;;;;;;10017836;28;20070;-68
2023/01/03 17:22:15;;;;;;;28.45;24.85;;;;;;;;;;10023022;28;20040;-69
2023/01/03 17:27:14;;;;;;;29.48;26.73;;;;;;;;;;10015341;28;20489;-69
2023/01/03 17:32:15;;;;;;;27.17;24.58;;;;;;;;;;10013907;28;20071;-68
2023/01/03 17:37:16;;;;;;;27.38;24.65;;;;;;;;;;10014836;28;20036;-68
2023/01/03 17:42:15;;;;;;;29.00;25.92;;;;;;;;;;10026045;28;20442;-68
2023/01/03 17:52:37;;;;;;;27.65;24.65;;;;;;;;;;10024350;28;20947;-68
2023/01/03 17:57:33;;;;;;;29.00;26.20;;;;;;;;;;10025200;28;20415;-68
2023/01/03 18:02:30;;;;;;;30.00;27.17;;;;;;;;;;10024083;28;20079;-68
2023/01/03 18:07:30;;;;;;;30.67;27.58;;;;;;;;;;10032865;28;20051;-69
2023/01/03 18:12:26;;;;;;;31.02;28.25;;;;;;;;;;10025712;28;20086;-68
2023/01/03 18:17:27;;;;;;;30.67;27.73;;;;;;;;;;10024657;29;20126;-69
2023/01/03 18:22:23;;;;;;;33.03;30.02;;;;;;;;;;10024348;28;20098;-69
2023/01/03 18:27:21;;;;;;;35.60;31.85;;;;;;;;;;10030322;28;20460;-68
2023/01/03 18:32:20;;;;;;;33.15;30.05;;;;;;;;;;10026391;28;20074;-68
2023/01/03 18:37:17;;;;;;;33.58;30.35;;;;;;;;;;10027249;28;20050;-68
2023/01/03 18:47:29;;;;;;;35.53;32.28;;;;;;;;;;10023961;28;20134;-68
2023/01/03 18:52:27;;;;;;;38.35;34.55;;;;;;;;;;10018946;28;20055;-69
2023/01/03 18:57:23;;;;;;;39.10;35.38;;;;;;;;;;10021095;29;20506;-68
2023/01/03 19:02:21;;;;;;;38.88;35.08;;;;;;;;;;10024233;28;20083;-69
2023/01/03 19:07:23;;;;;;;39.70;36.17;;;;;;;;;;10017510;29;20527;-69
2023/01/03 19:12:19;;;;;;;41.92;38.03;;;;;;;;;;10020072;29;20076;-69
2023/01/03 19:17:17;;;;;;;42.10;38.08;;;;;;;;;;10015901;28;20063;-69
2023/01/03 19:22:25;;;;;;;45.05;40.80;;;;;;;;;;10032742;28;20044;-69
2023/01/03 19:27:22;;;;;;;45.70;41.88;;;;;;;;;;10029114;28;20043;-69
2023/01/03 19:32:21;;;;;;;43.72;39.85;;;;;;;;;;10027859;28;20074;-70
2023/01/03 19:37:17;;;;;;;45.78;41.75;;;;;;;;;;10031379;28;20067;-69
2023/01/03 19:47:30;;;;;;;45.13;41.05;;;;;;;;;;10019181;29;20047;-69
2023/01/03 19:52:26;;;;;;;49.45;44.90;;;;;;;;;;10020275;29;20154;-69
2023/01/03 19:57:24;;;;;;;47.55;43.38;;;;;;;;;;10021353;28;20043;-69
2023/01/03 20:02:29;;;;;;;47.50;43.38;;;;;;;;;;10022810;28;20062;-69
2023/01/03 20:07:26;;;;;;;47.65;43.67;;;;;;;;;;10021290;28;20047;-68
2023/01/03 20:12:25;;;;;;;46.78;42.58;;;;;;;;;;10023433;29;20050;-69
2023/01/03 20:17:22;;;;;;;45.22;41.47;;;;;;;;;;10012100;29;20048;-69
2023/01/03 20:22:20;;;;;;;48.90;45.10;;;;;;;;;;10019146;28;20071;-69
2023/01/03 20:27:37;;;;;;;50.22;45.97;;;;;;;;;;10015958;28;20055;-68
2023/01/03 20:32:39;;;;;;;50.78;46.70;;;;;;;;;;10024167;28;20055;-69
2023/01/03 20:37:36;;;;;;;47.53;43.85;;;;;;;;;;10022605;29;20506;-68
2023/01/03 20:42:32;;;;;;;49.80;45.70;;;;;;;;;;10017431;28;20051;-69
2023/01/03 20:47:29;;;;;;;47.42;43.60;;;;;;;;;;10020887;28;20056;-69
2023/01/03 20:52:25;;;;;;;48.97;44.72;;;;;;;;;;10021811;28;20048;-69
2023/01/03 20:57:21;;;;;;;49.13;45.00;;;;;;;;;;10009402;28;20046;-68
2023/01/03 21:02:18;;;;;;;49.53;45.10;;;;;;;;;;10008930;28;20417;-67
2023/01/03 21:07:25;;;;;;;52.03;47.67;;;;;;;;;;10021144;28;20130;-68
2023/01/03 21:12:21;;;;;;;53.03;48.83;;;;;;;;;;10010664;28;20040;-68
2023/01/03 21:17:18;;;;;;;55.70;51.45;;;;;;;;;;10013416;28;20044;-68
2023/01/03 21:22:18;;;;;;;54.47;50.33;;;;;;;;;;10026712;28;20043;-68
2023/01/03 21:27:14;;;;;;;58.33;53.95;;;;;;;;;;10013815;28;20175;-66
2023/01/03 21:32:10;;;;;;;56.72;52.25;;;;;;;;;;10024800;28;20046;-67
2023/01/03 21:37:08;;;;;;;60.65;56.35;;;;;;;;;;10023505;28;20048;-67
2023/01/03 21:47:19;;;;;;;62.35;57.80;;;;;;;;;;10016935;28;20123;-68
2023/01/03 21:52:15;;;;;;;64.60;59.65;;;;;;;;;;10007962;28;20466;-68
2023/01/03 21:57:11;;;;;;;63.90;59.50;;;;;;;;;;10029752;28;20082;-68
2023/01/03 22:07:31;;;;;;;60.30;56.00;;;;;;;;;;10021888;28;20047;-68
2023/01/03 22:12:27;;;;;;;58.47;54.40;;;;;;;;;;10017461;28;20079;-67
2023/01/03 22:17:23;;;;;;;55.42;51.22;;;;;;;;;;10017256;28;20086;-67
2023/01/03 22:22:19;;;;;;;56.30;52.72;;;;;;;;;;10006163;28;20040;-66
2023/01/03 22:27:16;;;;;;;54.80;51.17;;;;;;;;;;10019674;28;20048;-66
2023/01/03 22:32:12;;;;;;;53.08;49.45;;;;;;;;;;10009355;28;20051;-66
2023/01/03 22:37:08;;;;;;;50.88;47.65;;;;;;;;;;10020272;29;20162;-67
2023/01/03 22:42:05;;;;;;;48.70;45.47;;;;;;;;;;10021797;28;20048;-67
2023/01/03 22:47:01;;;;;;;45.72;42.83;;;;;;;;;;10019733;28;20123;-68
2023/01/03 22:51:57;;;;;;;44.80;41.83;;;;;;;;;;10008253;28;20074;-68
2023/01/03 22:56:55;;;;;;;42.78;40.08;;;;;;;;;;10026762;28;20119;-67
2023/01/03 23:01:51;;;;;;;42.08;39.25;;;;;;;;;;10019403;28;20044;-67
2023/01/03 23:06:48;;;;;;;41.63;38.75;;;;;;;;;;10018905;29;20106;-67
2023/01/03 23:17:55;;;;;;;39.90;37.40;;;;;;;;;;10028672;28;20036;-68
2023/01/03 23:22:18;;;;;;;39.15;36.47;;;;;;;;;;10018491;28;20048;-67
2023/01/03 23:27:15;;;;;;;36.78;34.47;;;;;;;;;;10017859;29;20052;-67
2023/01/03 23:32:11;;;;;;;37.33;34.83;;;;;;;;;;10030922;28;20078;-68
2023/01/03 23:37:07;;;;;;;36.28;33.47;;;;;;;;;;10029845;28;20071;-68
2023/01/03 23:42:03;;;;;;;34.92;32.38;;;;;;;;;;10009153;29;20071;-68
2023/01/03 23:47:00;;;;;;;32.20;30.08;;;;;;;;;;10016090;28;20414;-68
2023/01/03 23:52:03;;;;;;;30.40;28.38;;;;;;;;;;10024671;28;20047;-67
2023/01/03 23:56:59;;;;;;;29.35;27.55;;;;;;;;;;10017095;29;20174;-67
